createdAt,value
2023-05-14T00:02:08.710Z,16.61
2023-05-14T00:04:35.627Z,16.56
2023-05-14T00:07:02.649Z,16.53
2023-05-14T00:09:30.601Z,16.51
2023-05-14T00:11:57.420Z,16.50
2023-05-14T00:14:24.484Z,16.50
2023-05-14T00:16:51.650Z,16.47
2023-05-14T00:19:19.165Z,16.39
2023-05-14T00:21:47.488Z,16.31
2023-05-14T00:24:14.504Z,16.26
2023-05-14T00:26:41.703Z,16.24
2023-05-14T00:29:08.630Z,16.22
2023-05-14T00:31:35.784Z,16.22
2023-05-14T00:34:03.208Z,16.23
2023-05-14T00:36:30.111Z,16.23
2023-05-14T00:38:56.999Z,16.24
2023-05-14T00:41:23.913Z,16.24
2023-05-14T00:43:50.916Z,16.23
2023-05-14T00:46:18.149Z,16.19
2023-05-14T00:48:45.357Z,16.14
2023-05-14T00:51:12.219Z,16.09
2023-05-14T00:53:39.270Z,16.03
2023-05-14T00:56:07.006Z,15.98
2023-05-14T00:58:33.850Z,15.95
2023-05-14T01:01:00.991Z,15.94
2023-05-14T01:03:28.984Z,15.95
2023-05-14T01:06:03.456Z,15.96
2023-05-14T01:08:36.843Z,15.96
2023-05-14T01:11:12.001Z,15.97
2023-05-14T01:13:43.088Z,15.95
2023-05-14T01:16:14.102Z,15.93
2023-05-14T01:18:41.684Z,15.90
2023-05-14T01:21:38.402Z,15.87
2023-05-14T01:24:05.672Z,15.86
2023-05-14T01:26:32.910Z,15.86
2023-05-14T01:29:22.410Z,15.87
2023-05-14T01:31:55.680Z,15.87
2023-05-14T01:34:23.867Z,15.88
2023-05-14T01:36:51.480Z,15.89
2023-05-14T01:39:19.346Z,15.91
2023-05-14T01:41:47.100Z,15.91
2023-05-14T01:44:14.102Z,15.91
2023-05-14T01:46:41.247Z,15.90
2023-05-14T01:49:08.802Z,15.89
2023-05-14T01:51:36.029Z,15.87
2023-05-14T01:54:02.907Z,15.83
2023-05-14T01:56:29.959Z,15.78
2023-05-14T01:58:57.362Z,15.75
2023-05-14T02:01:26.276Z,15.71
2023-05-14T02:03:53.365Z,15.67
2023-05-14T02:06:20.593Z,15.65
2023-05-14T02:08:48.539Z,15.62
2023-05-14T02:11:15.760Z,15.58
2023-05-14T02:13:42.742Z,15.53
2023-05-14T02:16:09.791Z,15.48
2023-05-14T02:18:36.802Z,15.42
2023-05-14T02:21:03.868Z,15.35
2023-05-14T02:23:40.443Z,15.29
2023-05-14T02:26:10.005Z,15.24
2023-05-14T02:28:37.032Z,15.20
2023-05-14T02:31:03.948Z,15.18
2023-05-14T02:33:31.106Z,15.17
2023-05-14T02:35:58.086Z,15.16
2023-05-14T02:38:26.374Z,15.14
2023-05-14T02:40:53.292Z,15.15
2023-05-14T02:43:20.173Z,15.15
2023-05-14T02:45:47.393Z,15.16
2023-05-14T02:48:14.346Z,15.17
2023-05-14T02:50:41.796Z,15.15
2023-05-14T02:53:09.051Z,15.14
2023-05-14T02:55:36.483Z,15.13
2023-05-14T02:58:03.543Z,15.11
2023-05-14T03:00:30.487Z,15.11
2023-05-14T03:02:58.073Z,15.09
2023-05-14T03:05:25.349Z,15.08
2023-05-14T03:07:53.763Z,15.08
2023-05-14T03:10:21.043Z,15.08
2023-05-14T03:12:48.233Z,15.10
2023-05-14T03:15:15.226Z,15.09
2023-05-14T03:17:42.230Z,15.10
2023-05-14T03:20:09.454Z,15.10
2023-05-14T03:22:36.541Z,15.11
2023-05-14T03:25:04.015Z,15.14
2023-05-14T03:27:30.840Z,15.17
2023-05-14T03:29:57.773Z,15.21
2023-05-14T03:32:24.790Z,15.24
2023-05-14T03:34:51.757Z,15.28
2023-05-14T03:37:18.710Z,15.32
2023-05-14T03:39:45.941Z,15.36
2023-05-14T03:42:12.782Z,15.41
2023-05-14T03:44:40.886Z,15.46
2023-05-14T03:47:08.675Z,15.52
2023-05-14T03:49:35.726Z,15.58
2023-05-14T03:52:03.036Z,15.66
2023-05-14T03:54:30.150Z,15.76
2023-05-14T03:56:57.165Z,15.86
2023-05-14T03:59:24.063Z,15.96
2023-05-14T04:01:51.023Z,16.06
2023-05-14T04:04:19.565Z,16.16
2023-05-14T04:06:46.482Z,16.26
2023-05-14T04:09:13.363Z,16.35
2023-05-14T04:11:40.433Z,16.45
2023-05-14T04:14:07.433Z,16.56
2023-05-14T04:16:34.465Z,16.66
2023-05-14T04:19:02.646Z,16.77
2023-05-14T04:21:29.842Z,16.88
2023-05-14T04:23:56.932Z,16.98
2023-05-14T04:26:23.849Z,17.10
2023-05-14T04:28:50.897Z,17.21
2023-05-14T04:31:17.915Z,17.33
2023-05-14T04:33:44.868Z,17.45
2023-05-14T04:36:12.783Z,17.57
2023-05-14T04:38:40.015Z,17.69
2023-05-14T04:41:07.269Z,17.82
2023-05-14T04:43:34.308Z,17.94
2023-05-14T04:46:01.315Z,18.15
2023-05-14T04:48:28.314Z,18.35
2023-05-14T04:50:55.348Z,18.51
2023-05-14T04:53:22.453Z,18.66
2023-05-14T04:55:49.260Z,18.80
2023-05-14T04:58:16.185Z,18.89
2023-05-14T05:00:43.131Z,18.96
2023-05-14T05:03:10.262Z,19.07
2023-05-14T05:05:37.315Z,19.15
2023-05-14T05:08:04.664Z,19.33
2023-05-14T05:10:31.568Z,19.43
2023-05-14T05:12:58.416Z,19.44
2023-05-14T05:15:26.564Z,19.48
2023-05-14T05:17:53.771Z,19.53
2023-05-14T05:20:20.986Z,19.57
2023-05-14T05:22:48.063Z,19.60
2023-05-14T05:25:15.199Z,19.68
2023-05-14T05:27:42.106Z,19.82
2023-05-14T05:30:09.674Z,19.76
2023-05-14T05:32:36.857Z,19.78
2023-05-14T05:35:03.956Z,19.75
2023-05-14T05:37:31.916Z,19.77
2023-05-14T05:39:58.925Z,19.80
2023-05-14T05:42:26.428Z,19.84
2023-05-14T05:44:53.412Z,19.89
2023-05-14T05:47:20.208Z,19.94
2023-05-14T05:49:47.142Z,20.02
2023-05-14T05:52:14.167Z,20.12
2023-05-14T05:54:41.106Z,20.21
2023-05-14T05:57:07.995Z,20.29
2023-05-14T05:59:35.013Z,20.37
2023-05-14T06:02:02.080Z,20.44
2023-05-14T06:04:29.105Z,20.56
2023-05-14T06:06:56.080Z,20.77
2023-05-14T06:09:23.000Z,20.89
2023-05-14T06:11:49.930Z,20.85
2023-05-14T06:14:16.860Z,20.82
2023-05-14T06:16:43.843Z,20.86
2023-05-14T06:19:11.193Z,20.92
2023-05-14T06:21:38.317Z,20.96
2023-05-14T06:24:05.623Z,21.03
2023-05-14T06:26:32.616Z,21.10
2023-05-14T06:28:59.563Z,21.17
2023-05-14T06:31:26.636Z,21.24
2023-05-14T06:33:53.442Z,21.31
2023-05-14T06:36:20.375Z,21.38
2023-05-14T06:38:47.242Z,21.44
2023-05-14T06:41:14.187Z,21.50
2023-05-14T06:43:41.134Z,21.56
2023-05-14T06:46:07.998Z,21.61
2023-05-14T06:48:34.968Z,21.67
2023-05-14T06:51:03.409Z,21.73
2023-05-14T06:55:48.037Z,21.70
2023-05-14T06:58:14.933Z,21.92
2023-05-14T07:00:42.788Z,22.00
2023-05-14T07:03:09.720Z,22.06
2023-05-14T07:05:36.888Z,22.14
2023-05-14T07:08:04.064Z,22.23
2023-05-14T07:10:31.141Z,22.31
2023-05-14T07:12:58.183Z,22.38
2023-05-14T07:15:25.081Z,22.44
2023-05-14T07:17:51.957Z,22.48
2023-05-14T07:20:18.974Z,22.52
2023-05-14T07:22:45.810Z,22.58
2023-05-14T07:25:12.666Z,22.62
2023-05-14T07:27:39.579Z,22.68
2023-05-14T07:30:07.772Z,22.75
2023-05-14T07:32:34.691Z,22.85
2023-05-14T07:35:01.979Z,22.91
2023-05-14T07:37:28.923Z,22.92
2023-05-14T07:39:56.380Z,22.99
2023-05-14T07:42:34.979Z,23.06
2023-05-14T07:45:03.748Z,23.13
2023-05-14T07:47:30.959Z,23.17
2023-05-14T07:49:58.312Z,23.22
2023-05-14T07:52:25.267Z,23.27
2023-05-14T07:54:57.036Z,23.31
2023-05-14T07:57:23.895Z,23.35
2023-05-14T07:59:51.020Z,23.40
2023-05-14T08:02:18.166Z,23.45
2023-05-14T08:04:45.287Z,23.47
2023-05-14T08:07:12.236Z,23.50
2023-05-14T08:09:39.261Z,23.53
2023-05-14T08:12:06.778Z,23.58
2023-05-14T08:14:33.567Z,23.64
2023-05-14T08:17:00.503Z,23.70
2023-05-14T08:19:27.912Z,23.74
2023-05-14T08:21:54.743Z,23.79
2023-05-14T08:24:21.653Z,23.85
2023-05-14T08:26:48.734Z,23.91
2023-05-14T08:29:16.547Z,23.97
2023-05-14T08:31:44.187Z,24.02
2023-05-14T08:34:11.128Z,24.08
2023-05-14T08:36:39.038Z,24.11
2023-05-14T08:39:07.997Z,24.14
2023-05-14T08:41:35.601Z,24.19
2023-05-14T08:44:26.332Z,24.27
2023-05-14T08:46:53.121Z,24.36
2023-05-14T08:49:40.967Z,24.44
2023-05-14T08:52:11.635Z,24.53
2023-05-14T08:54:39.196Z,24.61
2023-05-14T08:57:06.365Z,24.66
2023-05-14T08:59:34.970Z,24.72
2023-05-14T09:02:02.975Z,24.80
2023-05-14T09:04:30.502Z,24.88
2023-05-14T09:06:58.408Z,24.98
2023-05-14T09:09:26.676Z,25.08
2023-05-14T09:11:58.329Z,25.16
2023-05-14T09:14:28.442Z,25.25
2023-05-14T09:16:55.553Z,25.36
2023-05-14T09:19:22.681Z,25.47
2023-05-14T09:21:49.654Z,25.54
2023-05-14T09:24:21.320Z,25.65
2023-05-14T09:26:55.525Z,25.78
2023-05-14T09:29:25.117Z,25.87
2023-05-14T09:31:52.122Z,25.98
2023-05-14T09:34:26.741Z,26.09
2023-05-14T09:37:02.463Z,26.19
2023-05-14T09:39:29.810Z,26.25
2023-05-14T09:41:56.835Z,26.29
2023-05-14T09:44:24.406Z,26.37
2023-05-14T09:46:51.970Z,26.44
2023-05-14T09:49:18.901Z,26.48
2023-05-14T09:51:45.870Z,26.53
2023-05-14T09:54:12.966Z,26.55
2023-05-14T09:56:40.104Z,26.54
2023-05-14T09:59:07.097Z,26.56
2023-05-14T10:01:34.124Z,26.58
2023-05-14T10:04:04.005Z,26.62
2023-05-14T10:06:33.665Z,26.67
2023-05-14T10:09:04.189Z,26.74
2023-05-14T10:11:34.938Z,26.79
2023-05-14T10:14:09.593Z,26.78
2023-05-14T10:16:45.662Z,26.74
2023-05-14T10:19:12.832Z,26.70
2023-05-14T10:21:41.039Z,26.70
2023-05-14T10:24:08.515Z,26.73
2023-05-14T10:26:40.331Z,26.88
2023-05-14T10:29:07.173Z,27.00
2023-05-14T10:31:50.842Z,26.90
2023-05-14T10:34:46.254Z,26.74
2023-05-14T10:37:15.516Z,26.72
2023-05-14T10:39:46.468Z,26.78
2023-05-14T10:42:15.598Z,26.75
2023-05-14T10:44:51.659Z,26.79
2023-05-14T10:47:18.548Z,26.82
2023-05-14T10:49:49.131Z,26.82
2023-05-14T10:52:18.647Z,26.82
2023-05-14T10:54:52.372Z,26.80
2023-05-14T10:57:19.827Z,26.75
2023-05-14T10:59:53.373Z,26.68
2023-05-14T11:02:27.394Z,26.65
2023-05-14T11:05:11.271Z,26.66
2023-05-14T11:07:44.594Z,26.63
2023-05-14T11:10:12.926Z,26.58
2023-05-14T11:12:41.692Z,26.57
2023-05-14T11:15:10.058Z,26.58
2023-05-14T11:17:37.623Z,26.59
2023-05-14T11:20:08.201Z,26.62
2023-05-14T11:22:35.879Z,26.70
2023-05-14T11:25:02.905Z,26.80
2023-05-14T11:27:29.847Z,26.90
2023-05-14T11:29:56.960Z,27.00
2023-05-14T11:32:24.120Z,27.12
2023-05-14T11:34:51.562Z,27.28
2023-05-14T11:37:18.765Z,27.43
2023-05-14T11:39:49.916Z,27.55
2023-05-14T11:42:18.783Z,27.64
2023-05-14T11:44:50.513Z,27.73
2023-05-14T11:47:19.005Z,27.80
2023-05-14T11:49:46.199Z,27.90
2023-05-14T11:52:19.488Z,27.99
2023-05-14T11:54:46.870Z,28.06
2023-05-14T11:57:18.950Z,28.19
2023-05-14T11:59:46.187Z,28.28
2023-05-14T12:02:14.223Z,28.31
2023-05-14T12:04:41.934Z,28.31
2023-05-14T12:07:13.151Z,28.32
2023-05-14T12:09:49.587Z,28.40
2023-05-14T12:12:25.865Z,28.47
2023-05-14T12:14:53.210Z,28.55
2023-05-14T12:17:21.390Z,28.64
2023-05-14T12:20:04.501Z,28.68
2023-05-14T12:22:31.563Z,28.74
2023-05-14T12:24:59.645Z,28.76
2023-05-14T12:27:28.021Z,28.78
2023-05-14T12:30:19.053Z,28.87
2023-05-14T12:32:51.651Z,28.92
2023-05-14T12:35:19.162Z,29.01
2023-05-14T12:37:46.324Z,29.02
2023-05-14T12:40:13.801Z,29.00
2023-05-14T12:42:41.138Z,28.98
2023-05-14T12:45:08.771Z,29.00
2023-05-14T12:47:36.560Z,29.09
2023-05-14T12:50:03.842Z,29.15
2023-05-14T12:52:37.560Z,29.11
2023-05-14T12:55:10.135Z,29.06
2023-05-14T13:01:19.093Z,29.17
2023-05-14T13:04:37.538Z,29.31
2023-05-14T13:07:09.160Z,29.42
2023-05-14T13:09:36.432Z,29.46
2023-05-14T13:12:04.500Z,29.54
2023-05-14T13:14:36.539Z,29.65
2023-05-14T13:17:08.212Z,29.68
2023-05-14T13:19:35.377Z,29.57
2023-05-14T13:22:02.267Z,29.39
2023-05-14T13:25:12.408Z,29.22
2023-05-14T13:27:39.339Z,28.98
2023-05-14T13:30:07.061Z,28.80
2023-05-14T13:32:33.977Z,28.68
2023-05-14T13:35:00.971Z,28.50
2023-05-14T13:37:27.874Z,28.37
2023-05-14T13:39:54.847Z,28.30
2023-05-14T13:42:21.891Z,28.24
2023-05-14T13:44:49.042Z,28.15
2023-05-14T13:48:06.531Z,28.03
2023-05-14T13:50:33.618Z,27.88
2023-05-14T13:53:00.496Z,27.82
2023-05-14T13:55:27.435Z,27.68
2023-05-14T13:57:55.092Z,27.64
2023-05-14T14:00:22.232Z,27.58
2023-05-14T14:02:49.293Z,27.31
2023-05-14T14:05:29.820Z,27.14
2023-05-14T14:08:23.726Z,26.95
2023-05-14T14:11:00.599Z,26.63
2023-05-14T14:14:41.586Z,26.46
2023-05-14T14:17:09.257Z,26.26
2023-05-14T14:19:43.127Z,26.10
2023-05-14T14:22:14.197Z,25.91
2023-05-14T14:24:41.133Z,25.84
2023-05-14T14:27:08.145Z,25.61
2023-05-14T14:29:36.871Z,25.54
2023-05-14T14:32:04.667Z,25.57
2023-05-14T14:35:15.641Z,25.78
2023-05-14T14:38:09.716Z,26.81
2023-05-14T14:40:49.341Z,27.46
2023-05-14T14:43:19.204Z,27.73
2023-05-14T14:46:17.868Z,27.64
2023-05-14T14:48:50.800Z,27.45
2023-05-14T14:51:17.731Z,27.19
2023-05-14T14:54:11.144Z,26.85
2023-05-14T14:56:38.190Z,26.47
2023-05-14T14:59:05.140Z,26.19
2023-05-14T15:01:32.118Z,25.97
2023-05-14T15:03:58.967Z,25.80
2023-05-14T15:06:28.929Z,25.69
2023-05-14T15:08:56.006Z,25.59
2023-05-14T15:11:22.886Z,25.52
2023-05-14T15:13:50.046Z,25.43
2023-05-14T15:16:52.688Z,25.33
2023-05-14T15:19:21.462Z,25.21
2023-05-14T15:21:48.303Z,25.14
2023-05-14T15:24:40.907Z,25.16
2023-05-14T15:27:07.802Z,25.20
2023-05-14T15:29:34.741Z,25.26
2023-05-14T15:32:02.995Z,25.29
2023-05-14T15:34:30.177Z,25.32
2023-05-14T15:36:59.267Z,25.33
2023-05-14T15:40:01.236Z,25.29
2023-05-14T15:42:28.072Z,25.19
2023-05-14T15:45:01.078Z,25.12
2023-05-14T15:47:28.065Z,25.10
2023-05-14T15:49:54.913Z,25.14
2023-05-14T15:52:22.356Z,25.18
2023-05-14T15:54:49.783Z,25.23
2023-05-14T15:57:19.145Z,25.39
2023-05-14T15:59:50.110Z,25.52
2023-05-14T16:02:17.035Z,25.67
2023-05-14T16:04:54.429Z,25.99
2023-05-14T16:07:21.276Z,26.43
2023-05-14T16:09:48.129Z,26.80
2023-05-14T16:12:15.184Z,26.98
2023-05-14T16:14:42.845Z,26.91
2023-05-14T16:17:09.789Z,26.78
2023-05-14T16:19:36.838Z,26.79
2023-05-14T16:22:04.192Z,26.96
2023-05-14T16:24:31.031Z,27.12
2023-05-14T16:26:58.187Z,27.14
2023-05-14T16:29:25.233Z,27.06
2023-05-14T16:31:52.228Z,26.91
2023-05-14T16:34:22.398Z,26.73
2023-05-14T16:36:49.727Z,26.55
2023-05-14T16:39:16.803Z,26.34
2023-05-14T16:41:43.644Z,26.12
2023-05-14T16:44:13.664Z,25.92
2023-05-14T16:46:40.856Z,25.72
2023-05-14T16:49:07.972Z,25.52
2023-05-14T16:51:53.746Z,25.33
2023-05-14T16:54:37.388Z,25.10
2023-05-14T16:57:30.133Z,24.85
2023-05-14T16:59:57.082Z,24.62
2023-05-14T17:02:24.022Z,24.42
2023-05-14T17:04:51.084Z,24.22
2023-05-14T17:07:43.990Z,24.04
2023-05-14T17:10:11.091Z,23.87
2023-05-14T17:12:37.976Z,23.74
2023-05-14T17:15:07.200Z,23.64
2023-05-14T17:17:34.197Z,23.57
2023-05-14T17:20:01.110Z,23.51
2023-05-14T17:22:28.170Z,23.45
2023-05-14T17:24:55.201Z,23.38
2023-05-14T17:27:22.105Z,23.29
2023-05-14T17:30:14.074Z,23.22
2023-05-14T17:32:41.191Z,23.15
2023-05-14T17:35:10.400Z,23.10
2023-05-14T17:37:37.376Z,23.04
2023-05-14T17:40:04.838Z,22.98
2023-05-14T17:42:31.776Z,22.91
2023-05-14T17:44:59.161Z,22.82
2023-05-14T17:47:26.433Z,22.74
2023-05-14T17:49:53.460Z,22.65
2023-05-14T17:52:20.804Z,22.59
2023-05-14T17:54:47.748Z,22.55
2023-05-14T17:57:14.797Z,22.50
2023-05-14T17:59:43.045Z,22.46
2023-05-14T18:02:10.742Z,22.40
2023-05-14T18:04:37.998Z,22.41
2023-05-14T18:07:05.758Z,22.29
2023-05-14T18:09:32.928Z,22.20
2023-05-14T18:11:59.916Z,22.15
2023-05-14T18:14:27.122Z,22.10
2023-05-14T18:16:56.202Z,22.04
2023-05-14T18:22:56.156Z,21.92
2023-05-14T18:25:35.588Z,21.86
2023-05-14T18:28:02.848Z,21.79
2023-05-14T18:30:29.790Z,21.74
2023-05-14T18:32:56.661Z,21.67
2023-05-14T18:35:23.653Z,21.61
2023-05-14T18:38:20.127Z,21.56
2023-05-14T18:40:47.026Z,21.50
2023-05-14T18:43:15.196Z,21.43
2023-05-14T18:45:42.471Z,21.37
2023-05-14T18:48:10.192Z,21.33
2023-05-14T18:50:39.213Z,21.31
2023-05-14T18:53:06.649Z,21.29
2023-05-14T18:55:37.231Z,21.27
2023-05-14T18:58:04.141Z,21.22
2023-05-14T19:00:31.139Z,21.17
2023-05-14T19:02:58.289Z,21.12
2023-05-14T19:05:25.459Z,21.07
2023-05-14T19:07:52.676Z,21.01
2023-05-14T19:23:49.333Z,20.90
2023-05-14T19:26:16.357Z,21.15
2023-05-14T19:28:43.790Z,21.07
2023-05-14T19:31:11.203Z,20.98
2023-05-14T19:33:38.135Z,20.91
2023-05-14T19:36:05.678Z,20.87
2023-05-14T19:38:32.747Z,20.82
2023-05-14T19:40:59.560Z,20.76
2023-05-14T19:43:28.054Z,20.70
2023-05-14T19:45:55.071Z,20.64
2023-05-14T19:48:22.040Z,20.59
2023-05-14T19:50:48.989Z,20.54
2023-05-14T19:53:53.591Z,20.49
2023-05-14T19:56:21.711Z,20.42
2023-05-14T19:58:48.645Z,20.35
2023-05-14T20:01:15.499Z,20.29
2023-05-14T20:03:42.478Z,20.22
2023-05-14T20:06:09.470Z,20.15
2023-05-14T20:08:36.697Z,20.10
2023-05-14T20:11:03.672Z,20.04
2023-05-14T20:13:35.524Z,19.98
2023-05-14T20:16:02.892Z,19.92
2023-05-14T20:18:29.894Z,19.85
2023-05-14T20:20:56.834Z,19.77
2023-05-14T20:23:23.781Z,19.68
2023-05-14T20:25:51.393Z,19.60
2023-05-14T20:28:18.158Z,19.54
2023-05-14T20:30:45.124Z,19.48
2023-05-14T20:33:13.524Z,19.39
2023-05-14T20:35:44.015Z,19.30
2023-05-14T20:38:13.030Z,19.21
2023-05-14T20:41:15.207Z,19.13
2023-05-14T20:43:42.163Z,19.04
2023-05-14T20:46:09.409Z,18.96
2023-05-14T20:48:36.394Z,18.88
2023-05-14T20:51:06.751Z,18.80
2023-05-14T20:53:34.082Z,18.72
2023-05-14T20:56:01.473Z,18.65
2023-05-14T20:58:28.480Z,18.59
2023-05-14T21:00:55.425Z,18.53
2023-05-14T21:03:22.313Z,18.49
2023-05-14T21:05:49.520Z,18.46
2023-05-14T21:08:16.834Z,18.45
2023-05-14T21:10:43.928Z,18.41
2023-05-14T21:13:10.884Z,18.34
2023-05-14T21:15:37.932Z,18.24
2023-05-14T21:18:04.851Z,18.14
2023-05-14T21:20:31.710Z,18.07
2023-05-14T21:22:58.556Z,18.05
2023-05-14T21:26:29.160Z,17.99
2023-05-14T21:28:56.136Z,17.95
2023-05-14T21:31:25.920Z,17.87
2023-05-14T21:33:53.410Z,17.87
2023-05-14T21:36:21.280Z,17.82
2023-05-14T21:38:48.146Z,17.76
2023-05-14T21:41:15.070Z,17.70
2023-05-14T21:43:42.010Z,17.64
2023-05-14T21:46:08.927Z,17.57
2023-05-14T21:48:35.842Z,17.58
2023-05-14T21:51:02.850Z,17.62
2023-05-14T21:53:29.650Z,17.63
2023-05-14T21:55:56.533Z,17.64
2023-05-14T21:58:23.345Z,17.66
2023-05-14T22:00:50.348Z,17.66
2023-05-14T22:03:17.474Z,17.66
2023-05-14T22:05:44.428Z,17.62
2023-05-14T22:08:11.467Z,17.58
2023-05-14T22:10:38.413Z,17.55
2023-05-14T22:13:05.343Z,17.51
2023-05-14T22:15:32.245Z,17.46
2023-05-14T22:17:59.163Z,17.42
2023-05-14T22:20:26.097Z,17.38
2023-05-14T22:22:53.239Z,17.34
2023-05-14T22:25:20.302Z,17.34
2023-05-14T22:27:47.153Z,17.38
2023-05-14T22:30:14.066Z,17.40
2023-05-14T22:32:41.062Z,17.41
2023-05-14T22:35:08.492Z,17.41
2023-05-14T22:37:35.526Z,17.40
2023-05-14T22:40:05.245Z,17.35
2023-05-14T22:42:32.117Z,17.30
2023-05-14T22:44:59.059Z,17.23
2023-05-14T22:47:26.001Z,17.16
2023-05-14T22:49:52.848Z,17.09
2023-05-14T22:52:19.720Z,17.11
2023-05-14T22:54:46.922Z,17.15
2023-05-14T22:57:13.862Z,17.15
2023-05-14T22:59:40.954Z,17.14
2023-05-14T23:02:08.129Z,17.10
2023-05-14T23:04:35.510Z,17.06
2023-05-14T23:07:02.471Z,17.00
2023-05-14T23:09:29.596Z,16.94
2023-05-14T23:11:56.394Z,16.87
2023-05-14T23:14:23.308Z,16.79
2023-05-14T23:16:50.390Z,16.71
2023-05-14T23:19:17.651Z,16.69
2023-05-14T23:21:44.866Z,16.69
2023-05-14T23:24:11.883Z,16.65
2023-05-14T23:26:38.697Z,16.58
2023-05-14T23:29:06.142Z,16.53
2023-05-14T23:31:33.044Z,16.45
2023-05-14T23:33:59.892Z,16.40
2023-05-14T23:36:26.787Z,16.34
2023-05-14T23:38:53.736Z,16.27
2023-05-14T23:41:21.816Z,16.18
2023-05-14T23:43:49.313Z,16.10
2023-05-14T23:46:16.241Z,16.07
2023-05-14T23:48:43.306Z,16.07
2023-05-14T23:51:10.564Z,16.01
2023-05-14T23:53:37.605Z,15.92
2023-05-14T23:56:04.483Z,15.82
2023-05-14T23:58:31.596Z,15.72
